Weather at Koksijde airport - EBFN


metar: EBFN 250434Z 05009KT 1500 FEW070 SCT090 BKN130 12/12 Q1010 RERA AMB AMB BECMG YLO

8 minuten geleden, om 04:34 UTC, de wind blies met windsnelheden van 4.6 meter per seconde(10.4 mijl per uur) vanuit Noordoost nabij Koksijde airport. De temperatuur was 12 °C (54 °F), en de barometerdruk was 1,010 hPa (29.83 inHg). De relatieve vochtigheid was 100.0%. er was weinig bewolking op een hoogte van 2134 meter (7000 voet), verspreide bewolking op een hoogte van 2743 meter (9000 voet) en gebroken bewolking op een hoogte van 3962 meter (13000 voet). De zichtbaarheid was 1.5 kilometer (0.9 mijl).

temperature image   windir image sky image 

Last 24 hour graph Koksijde airport - EBFN